Time;durP1;ratioP1;P1;durP2;ratioP2;P2;SDS_P1;SDS_P2;PMS_P1;PMS_P2;Temp;Humidity;BMP_temperature;BMP_pressure;BME280_temperature;BME280_humidity;BME280_pressure;Samples;Min_cycle;Max_cycle;Signal;HPM_P1;HPM_P2
2022/05/04 00:01:31;;;;;;;;;;;7.40;99.90;;;;;;5097729;28;19931;-60
2022/05/04 00:03:57;;;;;;;;;;;7.50;99.90;;;;;;5116565;28;19928;-60
2022/05/04 00:06:22;;;;;;;;;;;7.50;99.90;;;;;;5117475;28;20353;-60
2022/05/04 00:08:48;;;;;;;;;;;7.50;99.90;;;;;;5116544;28;19930;-60
2022/05/04 00:11:14;;;;;;;;;;;7.50;99.90;;;;;;5116322;28;19931;-60
2022/05/04 00:13:39;;;;;;;;;;;7.50;99.90;;;;;;5116962;28;20326;-60
2022/05/04 00:16:06;;;;;;;;;;;7.40;99.90;;;;;;5116498;28;20292;-60
2022/05/04 00:18:32;;;;;;;;;;;7.50;99.90;;;;;;5116347;28;19927;-60
2022/05/04 00:20:57;;;;;;;;;;;7.50;99.90;;;;;;5116609;28;19947;-60
2022/05/04 00:23:23;;;;;;;;;;;7.50;99.90;;;;;;5115976;28;19946;-60
2022/05/04 00:25:49;;;;;;;;;;;7.50;99.90;;;;;;5116030;28;20036;-60
2022/05/04 00:28:15;;;;;;;;;;;7.50;99.90;;;;;;5097516;28;20024;-59
2022/05/04 00:30:40;;;;;;;;;;;7.40;99.90;;;;;;5096821;28;19963;-60
2022/05/04 00:33:06;;;;;;;;;;;7.40;99.90;;;;;;5115370;28;19928;-60
2022/05/04 00:35:32;;;;;;;;;;;7.50;99.90;;;;;;5116913;28;19923;-59
2022/05/04 00:37:58;;;;;;;;;;;7.40;99.90;;;;;;5115755;28;20338;-60
2022/05/04 00:40:24;;;;;;;;;;;7.40;99.90;;;;;;5114737;28;19923;-59
2022/05/04 00:42:49;;;;;;;;;;;7.40;99.90;;;;;;5098176;28;20006;-60
2022/05/04 00:45:15;;;;;;;;;;;7.50;99.90;;;;;;5097092;28;19930;-59
2022/05/04 00:47:40;;;;;;;;;;;7.50;99.90;;;;;;5115834;28;19927;-59
2022/05/04 00:50:07;;;;;;;;;;;7.50;99.90;;;;;;5116322;28;19927;-60
2022/05/04 00:52:34;;;;;;;;;;;7.60;99.90;;;;;;5115631;28;19924;-59
2022/05/04 00:55:00;;;;;;;;;;;7.60;99.90;;;;;;5115513;28;19924;-59
2022/05/04 01:00:12;;;;;;;;;;;7.50;99.90;;;;;;5097906;28;19924;-59
2022/05/04 01:02:38;;;;;;;;;;;7.60;99.90;;;;;;5096898;28;20014;-60
2022/05/04 01:05:05;;;;;;;;;;;7.70;99.90;;;;;;5115525;28;20011;-59
2022/05/04 01:07:30;;;;;;;;;;;7.50;99.90;;;;;;5116107;28;19977;-59
2022/05/04 01:09:56;;;;;;;;;;;7.50;99.90;;;;;;5115577;28;19928;-59
2022/05/04 01:12:22;;;;;;;;;;;7.50;99.90;;;;;;5096153;28;19927;-60
2022/05/04 01:14:48;;;;;;;;;;;7.50;99.90;;;;;;5116076;28;19971;-60
2022/05/04 01:17:13;;;;;;;;;;;7.50;99.90;;;;;;5115471;28;19967;-59
2022/05/04 01:19:39;;;;;;;;;;;7.50;99.90;;;;;;5096881;28;19924;-60
2022/05/04 01:22:05;;;;;;;;;;;7.50;99.90;;;;;;5115607;28;19930;-60
2022/05/04 01:24:30;;;;;;;;;;;7.50;99.90;;;;;;5115506;28;19924;-60
2022/05/04 01:26:56;;;;;;;;;;;7.50;99.90;;;;;;5114990;28;19923;-59
2022/05/04 01:29:21;;;;;;;;;;;7.50;99.90;;;;;;5115087;28;19931;-59
2022/05/04 01:31:47;;;;;;;;;;;7.50;99.90;;;;;;5115303;28;19923;-60
2022/05/04 01:34:13;;;;;;;;;;;7.50;99.90;;;;;;5096546;28;19931;-60
2022/05/04 01:36:39;;;;;;;;;;;7.60;99.90;;;;;;5115683;28;20320;-60
2022/05/04 01:39:05;;;;;;;;;;;7.50;99.90;;;;;;5096998;28;19930;-59
2022/05/04 01:44:15;;;;;;;;;;;7.50;99.90;;;;;;5095089;28;19931;-59
2022/05/04 01:46:41;;;;;;;;;;;7.50;99.90;;;;;;5096950;28;19975;-59
2022/05/04 01:49:06;;;;;;;;;;;7.40;99.90;;;;;;5114705;28;19923;-60
2022/05/04 01:51:32;;;;;;;;;;;7.40;99.90;;;;;;5114956;28;20364;-60
2022/05/04 01:53:57;;;;;;;;;;;7.40;99.90;;;;;;5114081;28;20382;-59
2022/05/04 01:56:23;;;;;;;;;;;7.40;99.90;;;;;;5114368;28;20006;-60
2022/05/04 01:58:49;;;;;;;;;;;7.40;99.90;;;;;;5115260;28;19920;-60
2022/05/04 02:01:14;;;;;;;;;;;7.40;99.90;;;;;;5114403;28;20509;-60
2022/05/04 02:03:40;;;;;;;;;;;7.40;99.90;;;;;;5114620;28;20429;-60
2022/05/04 02:06:06;;;;;;;;;;;7.50;99.90;;;;;;5114438;28;19946;-59
2022/05/04 02:08:33;;;;;;;;;;;7.40;99.90;;;;;;5114170;28;19928;-60
2022/05/04 02:10:59;;;;;;;;;;;7.40;99.90;;;;;;5113922;28;19972;-59
2022/05/04 02:13:25;;;;;;;;;;;7.40;99.90;;;;;;5095923;28;20007;-60
2022/05/04 02:15:50;;;;;;;;;;;7.40;99.90;;;;;;5114106;28;19928;-60
2022/05/04 02:18:16;;;;;;;;;;;7.50;99.90;;;;;;5114216;28;20050;-60
2022/05/04 02:20:41;;;;;;;;;;;7.50;99.90;;;;;;5114768;28;20353;-59
2022/05/04 02:23:07;;;;;;;;;;;7.50;99.90;;;;;;5095477;28;20026;-60
2022/05/04 02:25:33;;;;;;;;;;;7.50;99.90;;;;;;5113901;28;19977;-59
2022/05/04 02:27:58;;;;;;;;;;;7.40;99.90;;;;;;5114539;28;20259;-60
2022/05/04 02:30:24;;;;;;;;;;;7.30;99.90;;;;;;5113381;28;20262;-60
2022/05/04 02:32:49;;;;;;;;;;;7.40;99.90;;;;;;5113618;28;19924;-59
2022/05/04 02:38:00;;;;;;;;;;;7.40;99.90;;;;;;5113400;28;20377;-59
2022/05/04 02:40:27;;;;;;;;;;;7.40;99.90;;;;;;5094967;28;19924;-60
2022/05/04 02:42:53;;;;;;;;;;;7.50;99.90;;;;;;5114364;28;19924;-59
2022/05/04 02:45:19;;;;;;;;;;;7.50;99.90;;;;;;5113768;28;19930;-60
2022/05/04 02:47:45;;;;;;;;;;;7.60;99.90;;;;;;5113863;28;20006;-60
2022/05/04 02:50:10;;;;;;;;;;;7.80;99.90;;;;;;5095145;28;20433;-60
2022/05/04 02:52:36;;;;;;;;;;;7.60;99.90;;;;;;5113387;28;19968;-59
2022/05/04 02:55:02;;;;;;;;;;;7.70;99.90;;;;;;5113713;28;19981;-60
2022/05/04 02:57:28;;;;;;;;;;;7.60;99.90;;;;;;5112799;28;19919;-60
2022/05/04 02:59:54;;;;;;;;;;;7.60;99.90;;;;;;5114064;28;19969;-59
2022/05/04 03:02:31;;;;;;;;;;;7.60;99.90;;;;;;5112958;28;20366;-59
2022/05/04 03:04:59;;;;;;;;;;;7.60;99.90;;;;;;5095063;28;20014;-59
2022/05/04 03:07:25;;;;;;;;;;;7.60;99.90;;;;;;5113672;28;20415;-59
2022/05/04 03:09:50;;;;;;;;;;;7.70;99.90;;;;;;5094930;28;19924;-60
2022/05/04 03:12:16;;;;;;;;;;;7.60;99.90;;;;;;5112988;28;19931;-63
2022/05/04 03:14:43;;;;;;;;;;;7.70;99.90;;;;;;5093383;28;19935;-59
2022/05/04 03:17:08;;;;;;;;;;;7.70;99.90;;;;;;5092574;28;19974;-59
2022/05/04 03:19:34;;;;;;;;;;;7.70;99.90;;;;;;5092534;28;19964;-60
2022/05/04 03:21:59;;;;;;;;;;;7.70;99.90;;;;;;5093416;28;19967;-59
2022/05/04 03:24:25;;;;;;;;;;;7.60;99.90;;;;;;5112382;28;19924;-60
2022/05/04 03:26:51;;;;;;;;;;;7.60;99.90;;;;;;5106131;28;20400;-60
2022/05/04 03:29:16;;;;;;;;;;;7.50;99.90;;;;;;5093426;28;20015;-60
2022/05/04 03:31:42;;;;;;;;;;;7.50;99.90;;;;;;5092290;28;20374;-59
2022/05/04 03:34:07;;;;;;;;;;;7.60;99.90;;;;;;5104826;28;19980;-60
2022/05/04 03:36:35;;;;;;;;;;;7.60;99.90;;;;;;5113713;28;20008;-59
2022/05/04 03:39:02;;;;;;;;;;;7.70;99.90;;;;;;5113296;28;19974;-59
2022/05/04 03:41:27;;;;;;;;;;;7.70;99.90;;;;;;5096546;28;19925;-60
2022/05/04 03:43:53;;;;;;;;;;;7.70;99.90;;;;;;5091291;28;19924;-59
2022/05/04 03:46:20;;;;;;;;;;;7.70;99.90;;;;;;5074451;28;20440;-59
2022/05/04 03:48:48;;;;;;;;;;;7.70;99.90;;;;;;5092402;28;20293;-59
2022/05/04 03:51:14;;;;;;;;;;;7.70;99.90;;;;;;5100287;28;20007;-60
2022/05/04 03:53:40;;;;;;;;;;;7.70;99.90;;;;;;5112272;28;20010;-59
2022/05/04 03:56:06;;;;;;;;;;;7.70;99.90;;;;;;5095042;28;19930;-60
2022/05/04 03:58:31;;;;;;;;;;;7.70;99.90;;;;;;5113605;28;19928;-59
2022/05/04 04:00:57;;;;;;;;;;;7.70;99.90;;;;;;5096041;28;20014;-59
2022/05/04 04:03:23;;;;;;;;;;;7.70;99.90;;;;;;5092757;28;20024;-59
2022/05/04 04:05:48;;;;;;;;;;;7.70;99.90;;;;;;5092822;28;19947;-59
2022/05/04 04:08:14;;;;;;;;;;;7.70;99.90;;;;;;5074945;28;19930;-59
2022/05/04 04:10:40;;;;;;;;;;;7.60;99.90;;;;;;5113306;28;19934;-60
2022/05/04 04:13:06;;;;;;;;;;;7.60;99.90;;;;;;5113290;28;19976;-60
2022/05/04 04:15:32;;;;;;;;;;;7.50;99.90;;;;;;5116182;28;19927;-59
2022/05/04 04:17:58;;;;;;;;;;;7.50;99.90;;;;;;5116529;28;20392;-59
2022/05/04 04:23:08;;;;;;;;;;;7.50;99.90;;;;;;5115750;28;20433;-59
2022/05/04 04:25:34;;;;;;;;;;;7.50;99.90;;;;;;5116906;28;20018;-60
2022/05/04 04:27:59;;;;;;;;;;;7.70;99.90;;;;;;5099733;28;20030;-59
2022/05/04 04:30:25;;;;;;;;;;;7.50;99.90;;;;;;5094876;28;20370;-59
2022/05/04 04:32:51;;;;;;;;;;;7.50;99.90;;;;;;5096004;28;20294;-60
2022/05/04 04:35:16;;;;;;;;;;;7.50;99.90;;;;;;5102389;28;19924;-59
2022/05/04 04:37:42;;;;;;;;;;;7.50;99.90;;;;;;5115463;28;19993;-59
2022/05/04 04:40:08;;;;;;;;;;;7.50;99.90;;;;;;5111625;28;19924;-59
2022/05/04 04:42:33;;;;;;;;;;;7.50;99.90;;;;;;5096100;28;19919;-60
2022/05/04 04:44:59;;;;;;;;;;;7.50;99.90;;;;;;5107878;28;20378;-59
2022/05/04 04:47:25;;;;;;;;;;;7.60;99.90;;;;;;5097909;28;19924;-59
2022/05/04 04:49:54;;;;;;;;;;;7.60;99.90;;;;;;5115698;28;19931;-59
2022/05/04 04:52:20;;;;;;;;;;;7.60;99.90;;;;;;5114176;28;19924;-59
2022/05/04 04:54:45;;;;;;;;;;;7.70;99.90;;;;;;5096014;28;20432;-59
2022/05/04 04:57:11;;;;;;;;;;;7.70;99.90;;;;;;5076934;28;20014;-59
2022/05/04 04:59:37;;;;;;;;;;;7.70;99.90;;;;;;5095153;28;19924;-59
2022/05/04 05:02:02;;;;;;;;;;;7.70;99.90;;;;;;5095207;28;19966;-59
2022/05/04 05:04:28;;;;;;;;;;;7.80;99.90;;;;;;5094977;28;19931;-59
2022/05/04 05:06:53;;;;;;;;;;;7.80;99.90;;;;;;5095260;28;19932;-59
2022/05/04 05:09:19;;;;;;;;;;;7.90;99.90;;;;;;5095520;28;19931;-59
2022/05/04 05:11:45;;;;;;;;;;;7.90;99.90;;;;;;5109614;28;19930;-60
2022/05/04 05:16:57;;;;;;;;;;;8.00;99.90;;;;;;5115855;28;19924;-60
2022/05/04 05:19:23;;;;;;;;;;;8.10;99.90;;;;;;5114506;28;20018;-60
2022/05/04 05:21:48;;;;;;;;;;;8.10;99.90;;;;;;5115219;28;19927;-60
2022/05/04 05:24:14;;;;;;;;;;;8.10;99.90;;;;;;5115794;28;19924;-59
2022/05/04 05:26:40;;;;;;;;;;;8.20;99.90;;;;;;5090533;28;19982;-60
2022/05/04 05:29:06;;;;;;;;;;;8.30;99.90;;;;;;5094399;28;19967;-60
2022/05/04 05:31:31;;;;;;;;;;;8.30;99.90;;;;;;5094716;28;19935;-60
2022/05/04 05:33:57;;;;;;;;;;;8.30;99.90;;;;;;5094385;28;19924;-59
2022/05/04 05:36:22;;;;;;;;;;;8.40;99.90;;;;;;5094837;28;19925;-60
2022/05/04 05:38:48;;;;;;;;;;;8.40;99.90;;;;;;5114707;28;19923;-60
2022/05/04 05:41:14;;;;;;;;;;;8.40;99.90;;;;;;5081972;28;20282;-59
2022/05/04 05:43:39;;;;;;;;;;;8.40;99.90;;;;;;5094283;28;19928;-59
2022/05/04 05:46:05;;;;;;;;;;;8.50;99.90;;;;;;5093743;28;19932;-60
2022/05/04 05:48:31;;;;;;;;;;;8.50;99.90;;;;;;5095129;28;19924;-60
2022/05/04 05:50:56;;;;;;;;;;;8.60;99.90;;;;;;5094338;28;19928;-59
2022/05/04 05:53:22;;;;;;;;;;;8.60;99.90;;;;;;5093931;28;20669;-60
2022/05/04 05:55:49;;;;;;;;;;;8.60;99.90;;;;;;5090166;28;19924;-59
2022/05/04 05:58:15;;;;;;;;;;;8.60;99.90;;;;;;5096509;28;19930;-60
2022/05/04 06:00:40;;;;;;;;;;;8.50;99.90;;;;;;5114423;28;19924;-59
2022/05/04 06:03:06;;;;;;;;;;;8.50;99.90;;;;;;5084763;28;19996;-59
2022/05/04 06:05:32;;;;;;;;;;;8.50;99.90;;;;;;5114877;28;19927;-59
2022/05/04 06:07:57;;;;;;;;;;;8.40;99.90;;;;;;5113606;28;19977;-60
2022/05/04 06:10:23;;;;;;;;;;;8.40;99.90;;;;;;5114500;28;19946;-59
2022/05/04 06:12:48;;;;;;;;;;;8.40;99.90;;;;;;5114072;28;20340;-60
2022/05/04 06:15:14;;;;;;;;;;;8.40;99.90;;;;;;5113559;28;19939;-59
2022/05/04 06:17:41;;;;;;;;;;;8.40;99.90;;;;;;5114696;28;19935;-60
2022/05/04 06:20:07;;;;;;;;;;;8.50;99.90;;;;;;5114819;28;19967;-59
2022/05/04 06:22:32;;;;;;;;;;;8.50;99.90;;;;;;5112820;28;19978;-60
2022/05/04 06:24:58;;;;;;;;;;;8.50;99.90;;;;;;5114668;28;19966;-59
2022/05/04 06:27:24;;;;;;;;;;;8.50;99.90;;;;;;5103146;28;19963;-59
2022/05/04 06:35:18;;;;;;;;;;;8.60;99.90;;;;;;5092944;28;19924;-59
2022/05/04 06:37:43;;;;;;;;;;;8.50;99.90;;;;;;5093108;28;19944;-59
2022/05/04 06:40:09;;;;;;;;;;;8.50;99.90;;;;;;5103310;28;19931;-60
2022/05/04 06:42:35;;;;;;;;;;;8.60;99.90;;;;;;5092895;28;19924;-59
2022/05/04 06:45:01;;;;;;;;;;;8.70;99.90;;;;;;5093726;28;20378;-59
2022/05/04 06:47:27;;;;;;;;;;;8.70;99.90;;;;;;5094878;28;20029;-59
2022/05/04 06:49:52;;;;;;;;;;;8.70;99.90;;;;;;5113388;28;20388;-59
2022/05/04 06:52:18;;;;;;;;;;;8.80;99.90;;;;;;5113596;28;20007;-59
2022/05/04 06:54:44;;;;;;;;;;;8.80;99.90;;;;;;5114167;28;19976;-60
2022/05/04 06:57:09;;;;;;;;;;;8.80;99.90;;;;;;5112516;28;19923;-59
2022/05/04 06:59:36;;;;;;;;;;;8.80;99.90;;;;;;5113667;28;20024;-59
2022/05/04 07:02:01;;;;;;;;;;;8.80;99.90;;;;;;5110871;28;19924;-60
2022/05/04 07:04:27;;;;;;;;;;;9.00;99.90;;;;;;5092926;28;19924;-59
2022/05/04 07:06:53;;;;;;;;;;;8.90;99.90;;;;;;5108990;28;19923;-59
2022/05/04 07:09:18;;;;;;;;;;;8.90;99.90;;;;;;5113841;28;19927;-59
2022/05/04 07:11:44;;;;;;;;;;;8.90;99.90;;;;;;5113075;28;19924;-59
2022/05/04 07:14:10;;;;;;;;;;;9.00;99.90;;;;;;5112655;28;19959;-59
2022/05/04 07:16:36;;;;;;;;;;;9.10;99.90;;;;;;5107377;28;19931;-59
2022/05/04 07:19:02;;;;;;;;;;;9.10;99.90;;;;;;5091602;28;19974;-59
2022/05/04 07:21:28;;;;;;;;;;;9.30;99.90;;;;;;5087797;28;19924;-59
2022/05/04 07:23:53;;;;;;;;;;;9.30;99.90;;;;;;5094787;28;20439;-59
2022/05/04 07:26:19;;;;;;;;;;;9.30;99.90;;;;;;5092321;28;20336;-59
2022/05/04 07:28:45;;;;;;;;;;;9.30;99.90;;;;;;5091801;28;19924;-59
2022/05/04 07:31:10;;;;;;;;;;;9.50;99.90;;;;;;5092135;28;19932;-59
2022/05/04 07:33:36;;;;;;;;;;;9.50;99.90;;;;;;5090978;28;19978;-60
2022/05/04 07:36:02;;;;;;;;;;;9.60;99.90;;;;;;5091044;28;20382;-60
2022/05/04 07:38:27;;;;;;;;;;;9.70;99.90;;;;;;5077130;28;19924;-59
2022/05/04 07:43:38;;;;;;;;;;;9.90;99.90;;;;;;5096058;28;20318;-60
2022/05/04 07:46:03;;;;;;;;;;;10.00;99.90;;;;;;5076965;28;19925;-60
2022/05/04 07:48:29;;;;;;;;;;;10.10;99.90;;;;;;5055640;28;19928;-60
2022/05/04 07:50:55;;;;;;;;;;;10.00;99.90;;;;;;5085739;28;19932;-59
2022/05/04 07:53:20;;;;;;;;;;;10.00;99.90;;;;;;5096171;28;19924;-60
2022/05/04 07:55:47;;;;;;;;;;;10.20;99.90;;;;;;5096778;28;19924;-60
2022/05/04 07:58:12;;;;;;;;;;;10.20;99.90;;;;;;5074635;28;20027;-59
2022/05/04 08:06:06;;;;;;;;;;;10.30;99.90;;;;;;5074819;28;19924;-60
2022/05/04 08:08:32;;;;;;;;;;;10.60;99.90;;;;;;5083616;28;19950;-59
2022/05/04 08:10:58;;;;;;;;;;;10.70;99.30;;;;;;5096572;28;19924;-59
2022/05/04 08:13:23;;;;;;;;;;;10.80;98.80;;;;;;5077560;28;20036;-60
2022/05/04 08:15:49;;;;;;;;;;;10.80;98.80;;;;;;5078315;28;19947;-59
2022/05/04 08:18:16;;;;;;;;;;;10.70;98.40;;;;;;5116938;28;19931;-59
2022/05/04 08:20:42;;;;;;;;;;;10.60;98.90;;;;;;5109707;28;19928;-60
2022/05/04 08:23:09;;;;;;;;;;;10.70;99.50;;;;;;5094685;28;19931;-59
2022/05/04 08:25:35;;;;;;;;;;;10.80;99.50;;;;;;5083935;28;20007;-60
2022/05/04 08:28:01;;;;;;;;;;;11.00;99.90;;;;;;5093603;28;20513;-60
2022/05/04 08:30:27;;;;;;;;;;;11.30;99.90;;;;;;5096181;28;20003;-60
2022/05/04 08:32:53;;;;;;;;;;;11.60;99.90;;;;;;5077485;28;19928;-59
2022/05/04 08:35:18;;;;;;;;;;;11.80;97.70;;;;;;5090790;28;20010;-60
2022/05/04 08:37:44;;;;;;;;;;;11.80;97.60;;;;;;5096154;28;19923;-60
2022/05/04 08:40:10;;;;;;;;;;;11.70;98.10;;;;;;5096088;28;19924;-60
2022/05/04 08:42:38;;;;;;;;;;;11.40;97.30;;;;;;5094121;28;20346;-60
2022/05/04 08:45:05;;;;;;;;;;;11.20;97.70;;;;;;5098607;28;20010;-60
2022/05/04 08:47:32;;;;;;;;;;;11.00;98.10;;;;;;5077553;28;20397;-60
2022/05/04 08:49:57;;;;;;;;;;;10.90;99.90;;;;;;5093116;28;20471;-59
2022/05/04 08:52:23;;;;;;;;;;;10.90;99.90;;;;;;5092511;28;20014;-60
2022/05/04 08:54:49;;;;;;;;;;;10.90;98.90;;;;;;5109452;28;20290;-60
2022/05/04 08:57:15;;;;;;;;;;;10.90;99.00;;;;;;5092970;28;19976;-60
2022/05/04 08:59:43;;;;;;;;;;;10.90;98.30;;;;;;5094053;28;20069;-59
2022/05/04 09:02:10;;;;;;;;;;;10.90;98.10;;;;;;5094876;28;19924;-60
2022/05/04 09:04:39;;;;;;;;;;;10.90;99.30;;;;;;5094339;28;19931;-60
2022/05/04 09:07:18;;;;;;;;;;;10.90;98.70;;;;;;5095271;28;20409;-59
2022/05/04 09:09:44;;;;;;;;;;;10.90;98.50;;;;;;5094078;28;19928;-60
2022/05/04 09:12:14;;;;;;;;;;;11.10;99.30;;;;;;5089750;28;19973;-59
2022/05/04 09:14:40;;;;;;;;;;;11.40;98.10;;;;;;5103822;28;19924;-59
2022/05/04 09:17:08;;;;;;;;;;;11.50;97.30;;;;;;5104553;28;19924;-60
2022/05/04 09:19:34;;;;;;;;;;;11.50;97.30;;;;;;5082971;28;20011;-60
2022/05/04 09:21:59;;;;;;;;;;;11.50;98.50;;;;;;5114291;28;20385;-59
2022/05/04 09:24:27;;;;;;;;;;;11.50;97.20;;;;;;5115060;28;20030;-60
2022/05/04 09:26:53;;;;;;;;;;;11.40;96.90;;;;;;5091731;28;20018;-59
2022/05/04 09:29:20;;;;;;;;;;;11.30;97.00;;;;;;5097614;28;20389;-59
2022/05/04 09:31:46;;;;;;;;;;;11.40;97.80;;;;;;5101366;28;19930;-59
2022/05/04 09:34:12;;;;;;;;;;;11.40;97.00;;;;;;5103756;28;20275;-59
2022/05/04 09:44:54;;;;;;;;;;;12.00;97.60;;;;;;5112575;28;19985;-60
2022/05/04 09:47:21;;;;;;;;;;;11.90;96.90;;;;;;5113322;28;19935;-60
2022/05/04 09:49:48;;;;;;;;;;;11.80;96.60;;;;;;5096135;28;19923;-60
2022/05/04 09:52:15;;;;;;;;;;;11.60;96.80;;;;;;5114349;28;20024;-60
2022/05/04 09:54:41;;;;;;;;;;;11.50;97.90;;;;;;5113398;28;19924;-60
2022/05/04 09:57:07;;;;;;;;;;;11.40;97.90;;;;;;5114231;28;19969;-60
2022/05/04 09:59:34;;;;;;;;;;;11.50;98.30;;;;;;5113905;28;19923;-60
2022/05/04 10:02:00;;;;;;;;;;;11.60;98.30;;;;;;5095072;28;20011;-60
2022/05/04 10:04:26;;;;;;;;;;;11.80;97.90;;;;;;5114553;28;20301;-60
2022/05/04 10:06:53;;;;;;;;;;;12.10;97.90;;;;;;5095814;28;19973;-60
2022/05/04 10:09:19;;;;;;;;;;;12.10;95.30;;;;;;5115004;28;19935;-60
2022/05/04 10:11:46;;;;;;;;;;;12.10;96.00;;;;;;5113278;28;19924;-60
2022/05/04 10:14:13;;;;;;;;;;;12.20;96.20;;;;;;5113771;28;19947;-60
2022/05/04 10:16:44;;;;;;;;;;;12.50;96.80;;;;;;5114981;28;20285;-60
2022/05/04 10:19:13;;;;;;;;;;;12.70;96.10;;;;;;5114324;28;19924;-60
2022/05/04 10:21:39;;;;;;;;;;;12.80;94.20;;;;;;5095326;28;19946;-60
2022/05/04 10:24:07;;;;;;;;;;;12.50;94.20;;;;;;5094227;28;20442;-60
2022/05/04 10:26:34;;;;;;;;;;;12.30;94.30;;;;;;5093318;28;19974;-60
2022/05/04 10:31:53;;;;;;;;;;;12.40;94.00;;;;;;5106629;28;19925;-60
2022/05/04 10:34:19;;;;;;;;;;;12.50;94.60;;;;;;5093480;28;20003;-60
2022/05/04 10:36:45;;;;;;;;;;;12.80;94.00;;;;;;5075186;28;20408;-60
2022/05/04 10:39:18;;;;;;;;;;;13.80;91.80;;;;;;5109409;28;19923;-60
2022/05/04 10:41:43;;;;;;;;;;;14.50;85.90;;;;;;5094764;28;19924;-60
2022/05/04 10:44:09;;;;;;;;;;;14.60;81.70;;;;;;5094033;28;19950;-60
2022/05/04 10:46:37;;;;;;;;;;;14.60;82.10;;;;;;5075461;28;19931;-60
2022/05/04 10:49:04;;;;;;;;;;;14.80;80.20;;;;;;5092280;28;19974;-60
2022/05/04 10:51:31;;;;;;;;;;;15.20;82.60;;;;;;5093395;28;20032;-60
2022/05/04 10:54:08;;;;;;;;;;;15.90;81.00;;;;;;5093569;28;19931;-60
2022/05/04 10:56:35;;;;;;;;;;;16.20;78.70;;;;;;5105732;28;19931;-60
2022/05/04 10:59:01;;;;;;;;;;;16.50;76.20;;;;;;5114066;28;19923;-60
2022/05/04 11:01:31;;;;;;;;;;;16.50;69.10;;;;;;5114195;28;20278;-60
2022/05/04 11:04:04;;;;;;;;;;;16.40;75.80;;;;;;5092654;28;19931;-60
2022/05/04 11:06:31;;;;;;;;;;;16.30;76.00;;;;;;5093640;28;20036;-61
2022/05/04 11:08:59;;;;;;;;;;;16.00;72.20;;;;;;5093540;28;19947;-61
2022/05/04 11:11:25;;;;;;;;;;;15.70;74.20;;;;;;5092462;28;20378;-60
2022/05/04 11:13:51;;;;;;;;;;;15.60;72.40;;;;;;5103244;28;19946;-60
2022/05/04 11:16:18;;;;;;;;;;;15.50;72.00;;;;;;5113968;28;20354;-61
2022/05/04 11:18:44;;;;;;;;;;;15.60;75.90;;;;;;5094215;28;19962;-60
2022/05/04 11:21:11;;;;;;;;;;;16.00;76.50;;;;;;5113561;28;19963;-61
2022/05/04 11:23:37;;;;;;;;;;;16.70;75.20;;;;;;5112306;28;19924;-60
2022/05/04 11:26:03;;;;;;;;;;;17.60;69.80;;;;;;5112969;28;19971;-60
2022/05/04 11:28:29;;;;;;;;;;;18.10;59.20;;;;;;5075148;28;19931;-60
2022/05/04 11:30:55;;;;;;;;;;;18.80;61.40;;;;;;5095786;28;19931;-61
2022/05/04 11:33:20;;;;;;;;;;;19.90;55.90;;;;;;5091213;28;19924;-61
2022/05/04 11:35:54;;;;;;;;;;;19.20;52.90;;;;;;5093368;28;20023;-60
2022/05/04 11:38:20;;;;;;;;;;;19.70;55.80;;;;;;5090768;28;19924;-60
2022/05/04 11:40:46;;;;;;;;;;;19.80;54.60;;;;;;5090338;28;20332;-61
2022/05/04 11:43:24;;;;;;;;;;;19.20;56.20;;;;;;5091825;28;19939;-61
2022/05/04 11:45:50;;;;;;;;;;;18.90;58.10;;;;;;5090835;28;19970;-61
2022/05/04 11:48:23;;;;;;;;;;;18.10;56.80;;;;;;5073211;28;19935;-61
2022/05/04 11:50:49;;;;;;;;;;;17.00;59.30;;;;;;5090448;28;19923;-61
2022/05/04 11:53:15;;;;;;;;;;;16.30;61.80;;;;;;5092145;28;19924;-61
2022/05/04 11:55:41;;;;;;;;;;;16.30;64.10;;;;;;5092631;28;20006;-61
2022/05/04 11:58:09;;;;;;;;;;;16.50;60.60;;;;;;5103264;28;19923;-61
2022/05/04 12:00:35;;;;;;;;;;;16.10;63.10;;;;;;5100045;28;19982;-61
2022/05/04 12:03:02;;;;;;;;;;;16.10;65.10;;;;;;5083002;28;19965;-61
2022/05/04 12:05:27;;;;;;;;;;;16.50;67.10;;;;;;5093103;28;20413;-61
2022/05/04 12:07:53;;;;;;;;;;;16.70;63.50;;;;;;5110419;28;20061;-61
2022/05/04 12:10:19;;;;;;;;;;;16.60;65.00;;;;;;5094312;28;19924;-61
2022/05/04 12:12:45;;;;;;;;;;;16.40;65.80;;;;;;5112744;28;20378;-61
2022/05/04 12:15:11;;;;;;;;;;;16.40;67.30;;;;;;5112145;28;19928;-60
2022/05/04 12:17:37;;;;;;;;;;;17.40;64.30;;;;;;5110903;28;19930;-61
2022/05/04 12:20:04;;;;;;;;;;;18.10;61.80;;;;;;5090510;28;19977;-61
2022/05/04 12:22:29;;;;;;;;;;;18.10;61.40;;;;;;5080833;28;19998;-60
2022/05/04 12:24:56;;;;;;;;;;;18.00;61.90;;;;;;5079488;28;20095;-61
2022/05/04 12:27:22;;;;;;;;;;;17.80;62.60;;;;;;5090464;28;20015;-61
2022/05/04 12:35:16;;;;;;;;;;;17.10;64.60;;;;;;5107039;28;20023;-61
2022/05/04 12:37:41;;;;;;;;;;;17.20;64.90;;;;;;5079859;28;20010;-61
2022/05/04 12:40:08;;;;;;;;;;;17.70;63.40;;;;;;5094493;28;19925;-61
2022/05/04 12:42:33;;;;;;;;;;;17.90;63.20;;;;;;5099995;28;20328;-61
2022/05/04 12:45:00;;;;;;;;;;;17.90;63.10;;;;;;5096059;28;19928;-60
2022/05/04 12:47:25;;;;;;;;;;;18.50;63.00;;;;;;5095701;28;20015;-61
2022/05/04 12:49:53;;;;;;;;;;;19.50;60.70;;;;;;5095393;28;20461;-61
2022/05/04 12:52:19;;;;;;;;;;;20.00;59.30;;;;;;5115387;28;19935;-61
2022/05/04 12:54:45;;;;;;;;;;;20.40;57.40;;;;;;5115942;28;20366;-61
2022/05/04 12:57:11;;;;;;;;;;;20.50;58.10;;;;;;5115710;28;19930;-61
2022/05/04 12:59:38;;;;;;;;;;;20.30;56.50;;;;;;5116205;28;20019;-61
2022/05/04 13:02:03;;;;;;;;;;;20.10;57.50;;;;;;5112431;28;19925;-61
2022/05/04 13:04:29;;;;;;;;;;;19.50;55.70;;;;;;5095130;28;19969;-61
2022/05/04 13:06:55;;;;;;;;;;;19.10;58.30;;;;;;5095934;28;19986;-61
2022/05/04 13:09:20;;;;;;;;;;;19.50;59.20;;;;;;5108518;28;19924;-61
2022/05/04 13:11:46;;;;;;;;;;;19.70;58.00;;;;;;5116229;28;19928;-61
2022/05/04 13:14:12;;;;;;;;;;;20.00;58.60;;;;;;5115815;28;19928;-61
2022/05/04 13:16:38;;;;;;;;;;;20.40;57.40;;;;;;5114210;28;20400;-61
2022/05/04 13:19:06;;;;;;;;;;;20.20;56.40;;;;;;5115930;28;19930;-61
2022/05/04 13:21:32;;;;;;;;;;;20.10;57.90;;;;;;5115750;28;19928;-62
2022/05/04 13:23:57;;;;;;;;;;;20.20;56.10;;;;;;5114421;28;20061;-61
2022/05/04 13:26:23;;;;;;;;;;;20.00;53.30;;;;;;5112335;28;19932;-61
2022/05/04 13:28:49;;;;;;;;;;;19.30;55.70;;;;;;5095457;28;20396;-61
2022/05/04 13:31:14;;;;;;;;;;;19.10;57.30;;;;;;5093480;28;20006;-61
2022/05/04 13:33:41;;;;;;;;;;;19.40;58.10;;;;;;5095302;28;20026;-61
2022/05/04 13:36:07;;;;;;;;;;;19.70;57.40;;;;;;5111075;28;20358;-61
2022/05/04 13:38:33;;;;;;;;;;;19.60;58.30;;;;;;5114471;28;19931;-61
2022/05/04 13:40:58;;;;;;;;;;;19.30;56.90;;;;;;5085382;28;19972;-62
2022/05/04 13:43:24;;;;;;;;;;;18.90;58.90;;;;;;5094435;28;19976;-62
2022/05/04 13:45:50;;;;;;;;;;;18.90;59.00;;;;;;5093575;28;19924;-62
2022/05/04 13:48:16;;;;;;;;;;;19.40;59.10;;;;;;5077038;28;19994;-61
2022/05/04 13:53:26;;;;;;;;;;;20.00;57.80;;;;;;5087977;28;19924;-61
2022/05/04 13:55:53;;;;;;;;;;;20.30;58.30;;;;;;5115452;28;19928;-62
2022/05/04 13:58:19;;;;;;;;;;;20.30;58.20;;;;;;5114998;28;20381;-62
2022/05/04 14:00:46;;;;;;;;;;;20.20;57.20;;;;;;5111479;28;20377;-62
2022/05/04 14:03:11;;;;;;;;;;;20.10;57.20;;;;;;5087013;28;20280;-62
2022/05/04 14:05:37;;;;;;;;;;;20.30;57.00;;;;;;5075486;28;19999;-62
2022/05/04 14:08:03;;;;;;;;;;;20.60;55.20;;;;;;5093917;28;20011;-62
2022/05/04 14:10:29;;;;;;;;;;;20.80;54.90;;;;;;5093693;28;20057;-62
2022/05/04 14:12:57;;;;;;;;;;;20.80;55.00;;;;;;5093600;28;19931;-61
2022/05/04 14:15:22;;;;;;;;;;;20.70;55.40;;;;;;5093945;28;19990;-62
2022/05/04 14:17:48;;;;;;;;;;;21.00;53.70;;;;;;5094293;28;19962;-62
2022/05/04 14:20:13;;;;;;;;;;;21.20;53.40;;;;;;5108181;28;19935;-62
2022/05/04 14:22:41;;;;;;;;;;;21.80;53.70;;;;;;5114359;28;19931;-62
2022/05/04 14:25:06;;;;;;;;;;;21.80;50.00;;;;;;5114739;28;19923;-62
2022/05/04 14:27:32;;;;;;;;;;;21.30;50.40;;;;;;5102632;28;20374;-62
2022/05/04 14:29:58;;;;;;;;;;;21.30;51.40;;;;;;5095569;28;19920;-62
2022/05/04 14:32:23;;;;;;;;;;;21.20;51.30;;;;;;5082359;28;19924;-62
2022/05/04 14:34:49;;;;;;;;;;;21.40;51.00;;;;;;5093129;28;19977;-62
2022/05/04 14:37:15;;;;;;;;;;;22.00;50.30;;;;;;5067842;28;19924;-62
2022/05/04 14:39:41;;;;;;;;;;;22.40;49.90;;;;;;5112585;28;19969;-62
2022/05/04 14:42:06;;;;;;;;;;;22.50;49.20;;;;;;5074816;28;19924;-62
2022/05/04 14:44:32;;;;;;;;;;;22.70;47.40;;;;;;5093528;28;19982;-62
2022/05/04 14:46:58;;;;;;;;;;;22.80;47.90;;;;;;5091590;28;19924;-62
2022/05/04 14:49:24;;;;;;;;;;;23.00;48.60;;;;;;5095250;28;20327;-62
2022/05/04 14:51:50;;;;;;;;;;;23.20;47.10;;;;;;5113452;28;19934;-62
2022/05/04 14:54:16;;;;;;;;;;;23.20;46.80;;;;;;5113274;28;20018;-62
2022/05/04 14:56:41;;;;;;;;;;;23.30;46.70;;;;;;5095112;28;20317;-62
2022/05/04 14:59:07;;;;;;;;;;;22.90;46.30;;;;;;5113043;28;19924;-62
2022/05/04 15:01:33;;;;;;;;;;;22.90;46.90;;;;;;5113875;28;19931;-62
2022/05/04 15:06:44;;;;;;;;;;;22.80;47.00;;;;;;5095106;28;19931;-62